Latest METARs, TAFs and NOTAMs for LIRA


---------------------------------------------------------------------------
	(OBSERVATIONS)
LIRA 291720Z 24004KT 180V280 CAVOK 18/09 Q1011=
LIRA 291650Z 25008KT CAVOK 18/08 Q1011=
LIRA 291620Z 25008KT CAVOK 19/09 Q1011=
LIRA 291550Z 24011KT 210V270 CAVOK 19/08 Q1011=
LIRA 291520Z 25009KT 190V310 CAVOK 20/08 Q1011=
LIRA 291450Z 31005KT 250V010 CAVOK 21/04 Q1011=
---------------------------------------------------------------------------
	(FC)
Sorry, FC For LIRA Not Found
---------------------------------------------------------------------------
	(TERMINAL AREA FORECAST)
LIRA 291700Z 2918/3018 02008KT CAVOK
    BECMG 3009/3011 24010KT=
---------------------------------------------------------------------------
	(NOTAMS)


LIRA A0574/17 REF AIP AD 2 LIRA 1-8 ITEM 18 'ATS COMMUNICATION
    FACILITIES' NEW ATIS EQPT INSTALLED WITH FLW CHARACTERISTICS:
    - COLUMN 1 'SERVICE': ATIS - COLUMN 2 'CALL SIGN': CIAMPINO
    ARRIVAL AND DEPARTURE INFORMATION - COLUMN 3 'FREQUENCY MHZ':
    122.425MHZ - COLUMN 4 'OPERATIONAL HOURS': H24 - COLUMN 5
    'REMARKS': 1)CIAMPINO ATIS BROADCAST MESSAGE ISSUES REAL
    TIME UPDATE INFORMATION 2)ATIS MESSAGE AVBL ON TEL: +390679086614.
    31 JAN 10:00 2017 UNTIL PERM. CREATED: 30 JAN 10:56 2017

LIRA A0816/17 ROMA/CIAMPINO AD: ACTIVATION ON TRIAL BASIS OF
    NOISE ABATEMENT ICP (INITIAL CLIMB PROCEDURE)/SID RWY15.
    SUP 12/14 IN FORCE SINCE 15 NOV 2014, END OF VALIDITY POSTPONED
    FROM 15 MAY 2015 TO 31 MAY 2017 EST. 07 FEB 10:45 2017 UNTIL
    07 MAY 23:59 2017 ESTIMATED. CREATED: 07 FEB 10:45 2017

LIRA A0819/17 REF AIP AD 2 LIRA 3-1 (AOC TYPE A) AND AOC TYPE
    B NR RA 4/3 ADD NEW OBSTACLE ACCORDING TO FOLLOWING DETAILS:
    - CRANE PENETRATING CURVED TOFPA (TAKE OFF FLIGHT PATH AREA)
    RWY15 AND INNER HORIZONTAL SURFACE. - PSN COORD (WGS-84)
    414556.6N 0123646.0E, 5157.5M AFTER THR15 AND 347.3M ON RIGHT
    SIDE FROM CENTRE LINE OF CURVED TOFPA RWY15 IN TAKE-OFF DIRECTION
    - MAX ELEV 17.5M/57.4FT AGL (186.0M/610.2FT AMSL) - ROTATING
    JIB 22.5M - ICAO SIGNAL UNPROVIDED. 23 FEB 00:00 2017 UNTIL
    PERM. CREATED: 07 FEB 10:53 2017

LIRA A0820/17 AIP PAGE AD 2 LIRA 6-1 'SID RWY 15' SUSPENDED.
    FOR SID RWY 15 REFER TO PAGE AD 2 LIRA 6-9 'SID RWY 15' (AIP
    SUP 12/2014 IN FORCE UNTIL 31 MAY 2017 EST. 07 FEB 11:35
    2017 UNTIL 07 MAY 23:59 2017 ESTIMATED. CREATED: 07 FEB 11:36
    2017

LIRA A1091/17 NEW EQUIPMENT DME INSTALLED ON TEST, DO NOT USE.
    CHARACTERISTICS: -IDENT 'TEST' -CH 42Y -PSN (WGS84) 414818.86N0123521.31E
    -DESIGNATED OPERATIONAL COVERAGE 25NM/10000FT REF AIP AD
    2 LIRA 1-8. 23 FEB 00:01 2017 UNTIL 20 MAY 23:59 2017 ESTIMATED.
    CREATED: 21 FEB 12:43 2017

LIRA A1092/17 REF AIP AD 2 LIRA 3-1 AND AOC TYPE B NR RA 4/3
    NEW OBSTACLES ERECTED POLE DME INSIDE STRIP RWY15/33 PSN
    292.5M AFTER THR15 112.1M RIGHT RCL ON TAKE-OFF DIRECTION
    COORD (WGS-84) 414818.9N 0123521.3E MAX ELEV AGL 6.0M/19.7FT
    MAX ELEV AMSL 113.9M/373.7FT ICAO SGL PROVIDED. 23 FEB 00:00
    2017 UNTIL PERM. CREATED: 21 FEB 12:46 2017

LIRA A1284/17 ROMA VOR/DME 'ROM' FREQ 110.80MHZ CH 45X REMOTE
    CONTROL NOT AVAILABLE. REF AIP AD 2 LIRA 1-10. 02 MAR 14:00
    2017 UNTIL 29 MAY 23:59 2017 ESTIMATED. CREATED: 02 MAR 14:00
    2017

LIRA A1505/17 REF AIP AD 2 LIRA 2-1 BOX ' BEARING STRENGTH' AND
    REF AIP AD 2 LIRA 1-6 ITEM 12 'RUNWAY PHYSICAL CHARACTERISTICS',
    COLUMN 4 'STRENGTH AND SURFACE OF RWY' TO READ: PCN/102/F/C/W/T
    BITUMINOUS CONGLOMERATE INSTEAD OF SIWL 35000 KG BITUMINOUS
    CONGLOMERATE. 14 MAR 10:56 2017 UNTIL PERM. CREATED: 14 MAR
    10:56 2017

LIRA A1600/17 TRIGGER NOTAM-PERM AIP AIRAC AMDT 3/17 EFFECTIVE
    DATE 27 APR 2017 - IMPLEMENTATION OF NEW INSTRUMENT APPROACH
    PROCEDURE 'RNAV A (CIRCLING) RWY 33' - VAC ROMA/CIAMPINO
    RWY 33 'PRESCRIBED TRACK FOR VISUAL MANOEUVRING TO RWY 33'
    UPDATED. AIRAC IS POSTED AND AVBL ON WEBSITE WWW.ENAV.IT.
    27 APR 00:00 2017 UNTIL 10 MAY 23:59 2017. CREATED: 16 MAR
    15:39 2017

LIRA A1856/17 INSTRUMENT APPROACH PROCEDURE RNAV (GNSS) RWY33
    TEMPORARILY NOT AVAILABLE REF AIP AD 2 LIRA 5-25. 27 MAR
    07:05 2017 UNTIL 24 JUN 23:59 2017 ESTIMATED. CREATED: 27
    MAR 07:05 2017

LIRA A2316/17 TRIGGER NOTAM-PERM AIP AIRAC AMDT 4/17 EFFECTIVE
    DATE 25 MAY 2017 CIAMPINO AD - UPDATE OF THE FOLLOWING INFORMATION
    PUBLISHED IN AD2 SECTION, PAGES 1-1 AND FOLLOWING: A) APPROACH
    AND RUNWAY LIGHTING B) OTHER LIGHTING, SECONDARY POWER SUPPLY
    - AERODROME CHART UPDATED AIRAC IS POSTED AND AVBL ON WEBSITE
    WWW.ENAV.IT. 25 MAY 00:00 2017 UNTIL 07 JUN 23:59 2017. CREATED:
    13 APR 14:29 2017

LIRA A2422/17 REF AIP AD 2 LIRA 4-3/4/5 STANDARD INSTRUMENT ARRIVAL
    PROCEDURES: - ALAXI 2F - ESINO 2F - GITOD 4F - LAT 2F - MOPUV
    2F - VALMA 2F ON TABLE DESCRIPTION REFERRED TO WAYPOINT 'URB'
    MODIFY TRACK VALUE TO READ '155DEG' INSTEAD OF '150DEG' OTHER
    DATA UNCHANGED. 19 APR 12:29 2017 UNTIL PERM. CREATED: 19
    APR 12:29 2017

LIRA A2570/17 REF AIP AD2 LIRA 1-15 ITEM 22 'FLIGHT PROCEDURES'
    BOX 3 'RADAR PROCEDURES' PARAGRAPH 3.2 'OPERATIONAL CHARACTERISTICS'
    CHG POINT 1 'USE OF RADAR IN AERODROME CONTROL SERVICE' AS
    FLW: 1) AERODROME CONTROL SERVICE IS PROVIDED ALSO BY MEANS
    OF RADAR ACCORDING TO THE REGULATION PUBLISHED IN AIP ENR
    1.6. 01 MAY 05:00 2017 UNTIL PERM. CREATED: 27 APR 11:12
    2017

LIRA A2601/17 STANDARD INSTRUMENT DEPARTURES PEMAR 5Z AND OKUNO
    5Z: MNM XNG LVL OVER RA502 RAISED TO FL100 DUE TO MIL AIR
    ACT ANNOUNCED BY NOTAM W0935/17. RMK: ABOVE MENTIONED RESTRICTIONS
    WILL BE APPLIED ON TACTICAL BASIS BY ROMA ACC REF AIP AD
    2 LIRA 6. DAILY 0600-1600, 02 MAY 06:00 2017 UNTIL 04 MAY
    16:00 2017. CREATED: 27 APR 20:25 2017

LIRA A2640/17 STANDARD INSTRUMENT DEPARTURES PEMAR 5Z AND OKUNO
    5Z: MNM XNG LVL OVER RA502 RAISED TO FL100 DUE TO MIL AIR
    ACT ANNOUNCED BY NOTAM W0945/17. RMK: ABOVE MENTIONED RESTRICTIONS
    WILL BE APPLIED ON TACTICAL BASIS BY ROMA ACC REF AIP AD
    2 LIRA 6. 12 MAY 06:00 2017 UNTIL 12 MAY 11:00 2017. CREATED:
    28 APR 13:17 2017

LIRA A6615/06 APCH LGT SIMPLIFIED REDUCED SYSTEM RWY33 TYPE 'STROBE'
    INSTL ON FRANGIBLE SUPPORT AND AVBL WITH FLW CHARACTERISTICS:
    5 UNIDIRECTIONAL FLASHING, 2 TIMES PER SECOND, HIGHT INTST
    LGT ALONG EXTENSION RWY CL, FST LGT 56M FM THR33. SEQUENT
    LIGHTS 56M ONE FM EACH OTHER, TOTAL LENGHT 280M 2 UNIDIRECTIONAL
    FLASHING, 2 TIMES PER SECOND, HIGHT INTENSITY LGT, BOTH SIDE
    THR RWY33 DIST 12M. REF AIP AGA 2-39.5 29 DEC 18:09 2006
    UNTIL 29 JAN 23:59 ESTIMATED

LIRA A7867/16 REF AIP AD 2 LIRA 1-1 'OPERATIONAL HOURS' BOX 8
    'FUELLING' AND AD 2 LIRA 1-2 'HANDLING SERVICES AND FACILITIES'
    ROW 2 'FUEL/OIL' DELETE AVGAS 100LL. 08 NOV 10:03 2016 UNTIL
    PERM. CREATED: 08 NOV 10:03 2016

LIRA A7932/16 REF AOC TYPE B NR RA 4/3 NEW OBSTACLE ERECTED POLE
    PENETRATING CONICAL SURFACE PSN COORD (WGS84) 414838.3N 0123926.1E
    ELEV AGL 27.0M/88.6FT ELEV AMSL 237.0M/777.6FT ICAO SIGNAL
    UNPROVIDED. 10 NOV 14:14 2016 UNTIL PERM. CREATED: 10 NOV
    14:14 2016

LIRA F0015/07 [DEFENSE ENERGY SUPPORT CENTER ADVISORY] FUEL AVAILABILITY
    NOT AVAILABLE PHONE AHEAD FOR FUEL AVAILABILITY. 12 JUL 10:20
    2020 UNTIL 01 AUG 25:20 2020

LIRA M1846/17 REF FLIP CENTRAL AND SOUTHERN ITALY AD LIRA 1-2.1
    STAR CONVENTIONAL AND P-RNAV CHG GITOD 3F TO READ: GITOD
    4F GITOD - RA421 - TIBER - RA406 - RA407(1) - URB NDB. MEL/MEA:
    GITOD - RA421: FL100 RA421 - TIBER: TRL TIBER - RA406: 6000FT
    RA406(2) - URB NDB: 3000FT OTHER INFORMATION UNCHANGED. 27
    APR 12:44 2017 UNTIL PERM. CREATED: 27 APR 12:44 2017

LIRA V0097/17 [US DOD PROCEDURAL NOTAM] STANDARD INSTRUMENT DEPARTURE
    (SID) NOT AUTHORIZED SIDS RWY 15 DUE TO HOST CHANGING THE
    PROCEDURES. 25 APR 06:47 2017 UNTIL 21 JUN 23:59 2017. CREATED:
    25 APR 06:47 2017

---------------------------------------------------------------------------